Akchar — 5TTDA — position and weather

sailwx.info

Track history (hours):
 
Tides and Currents Weather Stations Pressure Air Temp Water Temp Dewpoint Dewpoint Depression Visibility Wind Speed Wind Dir Waves Ship Positions

Akchar

Last reported at 2017-Nov-10 14:27 UTC. Time now 2017-Nov-21 04:43 UTC.
Position N 28°09' W 015°24'.
Warning: this ship's position is 10 days out of date.

Length 27 m; draft 4.2 m.

Type: Fishing. MMSI: 654045700.

Date/timePositionNaut miles runAvg speedWind from/ knotsBaromVisibWave heightAir tempDewpointWater temp
2017-Nov-10 14:27N 28°09' W 015°24'0 0.0
2017-Nov-10 14:00N 28°09' W 015°24'0 0.0
2017-Nov-10 13:30N 28°09' W 015°24'2 3.6
2017-Nov-10 13:00N 28°08' W 015°25'1 2.2
2017-Nov-10 12:30N 28°09' W 015°26'0 0.0
2017-Nov-10 12:00N 28°09' W 015°26'0 0.0
2017-Nov-10 11:30N 28°09' W 015°26'0 0.0
2017-Nov-10 11:00N 28°09' W 015°26'0 0.0
2017-Nov-10 10:30N 28°09' W 015°26'0 0.0
2017-Nov-10 10:00N 28°09' W 015°26'0 0.0
2017-Nov-10 09:30N 28°09' W 015°26'0 0.0
2017-Nov-10 09:00N 28°09' W 015°26'0 0.0
2017-Nov-10 08:30N 28°09' W 015°26'0 0.0
2017-Nov-10 08:00N 28°09' W 015°26'0 0.0
2017-Nov-10 07:30N 28°09' W 015°26'0 0.0
2017-Nov-10 07:00N 28°09' W 015°26'0 0.0
2017-Nov-10 06:30N 28°09' W 015°26'0 0.0
2017-Nov-10 06:00N 28°09' W 015°26'0 0.0
2017-Nov-10 05:30N 28°09' W 015°26'0 0.0
2017-Nov-10 05:00N 28°09' W 015°26'0 0.0
2017-Nov-10 04:30N 28°09' W 015°26'0 0.0
2017-Nov-10 04:00N 28°09' W 015°26'0 0.0
2017-Nov-10 03:30N 28°09' W 015°26'0 0.0
2017-Nov-10 03:00N 28°09' W 015°26'0 0.0
2017-Nov-10 02:30N 28°09' W 015°26'0 0.0
2017-Nov-10 02:00N 28°09' W 015°26'0 0.0
2017-Nov-10 01:30N 28°09' W 015°26'0 0.0
2017-Nov-10 01:00N 28°09' W 015°26'0 0.0
2017-Nov-10 00:30N 28°09' W 015°26'0 0.0
2017-Nov-10 00:00N 28°09' W 015°26'0 0.0
2017-Nov-09 23:30N 28°09' W 015°26'0 0.0
2017-Nov-09 23:00N 28°09' W 015°26'0 0.0
2017-Nov-09 22:30N 28°09' W 015°26'0 0.0
2017-Nov-09 22:00N 28°09' W 015°26'0 0.0
2017-Nov-09 21:30N 28°09' W 015°26'0 0.0
2017-Nov-09 21:00N 28°09' W 015°26'0 0.0
2017-Nov-09 20:30N 28°09' W 015°26'1 2.2
2017-Nov-09 20:00N 28°08' W 015°25'1 2.4
2017-Nov-09 19:30N 28°08' W 015°24'1 2.0
2017-Nov-09 19:01N 28°07' W 015°23'3 6.7
2017-Nov-09 18:30N 28°03' W 015°22'3 6.7
2017-Nov-09 18:00N 28°00' W 015°21'3 6.6
2017-Nov-09 17:30N 27°57' W 015°20'3 6.4
2017-Nov-09 17:00N 27°54' W 015°20'3 6.8
2017-Nov-09 16:30N 27°51' W 015°21'  
Track history (hours):
 
Tides and Currents Weather Stations Pressure Air Temp Water Temp Dewpoint Dewpoint Depression Visibility Wind Speed Wind Dir Waves Ship Positions

Akchar

Last reported at 2017-Nov-10 14:27 UTC. Time now 2017-Nov-21 04:43 UTC.
Position N 28°09' W 015°24'.
Warning: this ship's position is 10 days out of date.

Length 27 m; draft 4.2 m.

Type: Fishing. MMSI: 654045700.

Date/timePositionNaut miles runAvg speedWind from/ knotsBaromVisibWave heightAir tempDewpointWater temp
2017-Nov-10 14:27N 28°09' W 015°24'0 0.0
2017-Nov-10 14:00N 28°09' W 015°24'0 0.0
2017-Nov-10 13:30N 28°09' W 015°24'2 3.6
2017-Nov-10 13:00N 28°08' W 015°25'1 2.2
2017-Nov-10 12:30N 28°09' W 015°26'0 0.0
2017-Nov-10 12:00N 28°09' W 015°26'0 0.0
2017-Nov-10 11:30N 28°09' W 015°26'0 0.0
2017-Nov-10 11:00N 28°09' W 015°26'0 0.0
2017-Nov-10 10:30N 28°09' W 015°26'0 0.0
2017-Nov-10 10:00N 28°09' W 015°26'0 0.0
2017-Nov-10 09:30N 28°09' W 015°26'0 0.0
2017-Nov-10 09:00N 28°09' W 015°26'0 0.0
2017-Nov-10 08:30N 28°09' W 015°26'0 0.0
2017-Nov-10 08:00N 28°09' W 015°26'0 0.0
2017-Nov-10 07:30N 28°09' W 015°26'0 0.0
2017-Nov-10 07:00N 28°09' W 015°26'0 0.0
2017-Nov-10 06:30N 28°09' W 015°26'0 0.0
2017-Nov-10 06:00N 28°09' W 015°26'0 0.0
2017-Nov-10 05:30N 28°09' W 015°26'0 0.0
2017-Nov-10 05:00N 28°09' W 015°26'0 0.0
2017-Nov-10 04:30N 28°09' W 015°26'0 0.0
2017-Nov-10 04:00N 28°09' W 015°26'0 0.0
2017-Nov-10 03:30N 28°09' W 015°26'0 0.0
2017-Nov-10 03:00N 28°09' W 015°26'0 0.0
2017-Nov-10 02:30N 28°09' W 015°26'0 0.0
2017-Nov-10 02:00N 28°09' W 015°26'0 0.0
2017-Nov-10 01:30N 28°09' W 015°26'0 0.0
2017-Nov-10 01:00N 28°09' W 015°26'0 0.0
2017-Nov-10 00:30N 28°09' W 015°26'0 0.0
2017-Nov-10 00:00N 28°09' W 015°26'0 0.0
2017-Nov-09 23:30N 28°09' W 015°26'0 0.0
2017-Nov-09 23:00N 28°09' W 015°26'0 0.0
2017-Nov-09 22:30N 28°09' W 015°26'0 0.0
2017-Nov-09 22:00N 28°09' W 015°26'0 0.0
2017-Nov-09 21:30N 28°09' W 015°26'0 0.0
2017-Nov-09 21:00N 28°09' W 015°26'0 0.0
2017-Nov-09 20:30N 28°09' W 015°26'1 2.2
2017-Nov-09 20:00N 28°08' W 015°25'1 2.4
2017-Nov-09 19:30N 28°08' W 015°24'1 2.0
2017-Nov-09 19:01N 28°07' W 015°23'3 6.7
2017-Nov-09 18:30N 28°03' W 015°22'3 6.7
2017-Nov-09 18:00N 28°00' W 015°21'3 6.6
2017-Nov-09 17:30N 27°57' W 015°20'3 6.4
2017-Nov-09 17:00N 27°54' W 015°20'3 6.8
2017-Nov-09 16:30N 27°51' W 015°21'  

Dump ship's entire track history